Time;durP1;ratioP1;P1;durP2;ratioP2;P2;SDS_P1;SDS_P2;PMS_P1;PMS_P2;Temp;Humidity;BMP_temperature;BMP_pressure;BME280_temperature;BME280_humidity;BME280_pressure;Samples;Min_cycle;Max_cycle;Signal;HPM_P1;HPM_P2
2023/08/18 00:00:09;;;;;;;4.57;3.47;;;17.30;99.90;;;;;;5052325;28;20033;-66
2023/08/18 00:02:35;;;;;;;5.45;3.60;;;17.20;99.90;;;;;;5035160;28;20041;-66
2023/08/18 00:05:00;;;;;;;7.63;3.65;;;17.20;99.90;;;;;;5052246;28;20044;-66
2023/08/18 00:07:26;;;;;;;8.48;3.85;;;17.20;99.90;;;;;;5035259;28;20033;-66
2023/08/18 00:09:52;;;;;;;7.47;3.65;;;17.10;99.90;;;;;;5052775;28;20503;-66
2023/08/18 00:12:17;;;;;;;9.00;3.63;;;17.10;99.90;;;;;;5052792;28;20124;-66
2023/08/18 00:14:43;;;;;;;8.13;3.58;;;17.20;99.90;;;;;;5052328;28;20045;-66
2023/08/18 00:17:09;;;;;;;9.02;4.38;;;17.10;99.90;;;;;;5052597;28;20040;-66
2023/08/18 00:19:35;;;;;;;7.65;4.00;;;17.10;99.90;;;;;;5052791;28;20044;-66
2023/08/18 00:22:01;;;;;;;6.03;3.97;;;17.10;99.90;;;;;;5052711;28;20167;-66
2023/08/18 00:24:26;;;;;;;8.93;4.30;;;17.00;99.90;;;;;;5052352;28;20032;-66
2023/08/18 00:26:52;;;;;;;8.63;3.72;;;17.00;99.90;;;;;;5052075;28;20743;-66
2023/08/18 00:29:18;;;;;;;9.55;4.10;;;17.00;99.90;;;;;;5052141;28;20048;-66
2023/08/18 00:31:43;;;;;;;8.27;3.88;;;17.00;99.90;;;;;;5052779;28;20041;-66
2023/08/18 00:34:09;;;;;;;8.85;4.13;;;17.00;99.90;;;;;;5051519;28;20044;-66
2023/08/18 00:36:35;;;;;;;8.45;3.85;;;17.00;99.90;;;;;;5076239;22;20098;-67
2023/08/18 00:39:02;;;;;;;8.77;4.43;;;16.90;99.90;;;;;;5071626;28;20029;-67
2023/08/18 00:41:28;;;;;;;9.13;4.15;;;17.00;99.90;;;;;;5071954;28;20560;-67
2023/08/18 00:43:53;;;;;;;9.23;4.20;;;16.90;99.90;;;;;;5072049;28;20032;-67
2023/08/18 00:46:20;;;;;;;8.73;4.72;;;16.90;99.90;;;;;;5072169;28;20095;-67
2023/08/18 00:48:47;;;;;;;5.97;3.78;;;16.90;99.90;;;;;;5072284;28;20045;-67
2023/08/18 00:51:13;;;;;;;5.80;3.55;;;16.90;99.90;;;;;;5070495;28;20044;-66
2023/08/18 00:53:41;;;;;;;8.02;3.85;;;16.80;99.90;;;;;;5071746;28;20102;-67
2023/08/18 00:56:07;;;;;;;8.05;3.70;;;16.80;99.90;;;;;;5070638;28;20101;-67
2023/08/18 00:58:34;;;;;;;6.50;3.38;;;16.80;99.90;;;;;;5070805;28;20119;-67
2023/08/18 01:01:02;;;;;;;8.07;3.97;;;16.90;99.90;;;;;;5072063;28;20052;-67
2023/08/18 01:03:27;;;;;;;10.25;3.78;;;16.80;99.90;;;;;;5071956;28;20094;-67
2023/08/18 01:05:53;;;;;;;5.43;3.15;;;16.80;99.90;;;;;;5071902;28;20036;-67
2023/08/18 01:08:19;;;;;;;6.32;3.65;;;16.90;99.90;;;;;;5071882;28;20379;-66
2023/08/18 01:10:50;;;;;;;7.78;3.63;;;16.90;99.90;;;;;;5071616;28;20044;-67
2023/08/18 01:13:27;;;;;;;9.18;3.70;;;16.90;99.90;;;;;;5072092;28;20044;-67
2023/08/18 01:15:56;;;;;;;6.55;3.08;;;16.90;99.90;;;;;;5071442;28;20052;-67
2023/08/18 01:18:23;;;;;;;6.22;3.22;;;16.90;99.90;;;;;;5071974;28;20433;-66
2023/08/18 01:20:50;;;;;;;7.22;3.17;;;16.90;99.90;;;;;;5071521;28;20138;-66
2023/08/18 01:23:17;;;;;;;9.55;3.75;;;16.90;99.90;;;;;;5071616;28;20066;-67
2023/08/18 01:25:43;;;;;;;5.35;3.25;;;16.90;99.90;;;;;;5071208;28;20079;-67
2023/08/18 01:28:08;;;;;;;6.07;3.40;;;16.90;99.90;;;;;;5071999;28;20076;-67
2023/08/18 01:30:49;;;;;;;6.53;3.78;;;16.90;99.90;;;;;;5071102;28;20115;-67
2023/08/18 01:33:19;;;;;;;7.30;3.65;;;16.90;99.90;;;;;;5071389;28;20115;-67
2023/08/18 01:35:45;;;;;;;7.30;3.63;;;16.80;99.90;;;;;;5069572;28;20058;-66
2023/08/18 01:38:14;;;;;;;5.40;3.05;;;16.80;99.90;;;;;;5071929;28;20375;-67
2023/08/18 01:40:41;;;;;;;5.93;3.22;;;16.80;99.90;;;;;;5070232;28;20040;-67
2023/08/18 01:43:07;;;;;;;5.32;3.40;;;16.80;99.90;;;;;;5070938;28;20040;-67
2023/08/18 01:45:34;;;;;;;3.92;3.20;;;16.80;99.90;;;;;;5070080;28;20036;-67
2023/08/18 01:48:00;;;;;;;6.40;2.95;;;16.80;99.90;;;;;;5071662;28;20052;-67
2023/08/18 01:50:25;;;;;;;5.45;2.88;;;16.70;99.90;;;;;;5071380;28;20029;-67
2023/08/18 01:52:51;;;;;;;6.22;3.15;;;16.80;99.90;;;;;;5071638;28;20047;-67
2023/08/18 01:55:17;;;;;;;5.88;3.38;;;16.80;99.90;;;;;;5071380;28;20079;-67
2023/08/18 01:57:42;;;;;;;4.65;3.20;;;16.80;99.90;;;;;;5071655;28;20032;-67
2023/08/18 02:00:08;;;;;;;5.35;3.08;;;16.80;99.90;;;;;;5070844;28;20394;-67
2023/08/18 02:02:35;;;;;;;6.22;3.20;;;16.80;99.90;;;;;;5068404;28;20036;-67
2023/08/18 02:05:01;;;;;;;5.75;3.28;;;16.90;99.90;;;;;;5050975;28;20480;-66
2023/08/18 02:07:27;;;;;;;6.10;3.42;;;16.80;99.90;;;;;;5053496;28;20116;-67
2023/08/18 02:09:52;;;;;;;6.25;3.78;;;16.90;99.90;;;;;;5054828;28;20044;-67
2023/08/18 02:12:18;;;;;;;7.35;3.60;;;16.80;99.90;;;;;;5057455;28;20043;-67
2023/08/18 02:14:44;;;;;;;7.53;3.60;;;16.90;99.90;;;;;;5074403;28;20457;-66
2023/08/18 02:17:09;;;;;;;6.22;3.63;;;16.90;99.90;;;;;;5074717;28;20045;-67
2023/08/18 02:19:35;;;;;;;7.03;3.63;;;16.90;99.90;;;;;;5074820;28;20037;-67
2023/08/18 02:22:00;;;;;;;5.95;3.85;;;16.90;99.90;;;;;;5075066;28;20041;-67
2023/08/18 02:24:26;;;;;;;7.68;4.35;;;16.90;99.90;;;;;;5074772;28;20079;-67
2023/08/18 02:26:52;;;;;;;8.50;4.00;;;16.80;99.90;;;;;;5074984;28;20032;-67
2023/08/18 02:29:18;;;;;;;7.32;4.30;;;16.80;99.90;;;;;;5074921;28;20490;-67
2023/08/18 02:31:43;;;;;;;8.95;4.13;;;16.90;99.90;;;;;;5074661;28;20119;-67
2023/08/18 02:34:09;;;;;;;10.35;4.63;;;16.90;99.90;;;;;;5074404;28;20051;-67
2023/08/18 02:36:35;;;;;;;7.82;4.68;;;16.90;99.90;;;;;;5074582;28;20123;-67
2023/08/18 02:39:02;;;;;;;9.38;4.32;;;16.90;99.90;;;;;;5073412;28;20036;-67
2023/08/18 02:41:27;;;;;;;10.00;4.97;;;16.90;99.90;;;;;;5074200;28;20075;-67
2023/08/18 02:43:53;;;;;;;9.07;4.78;;;16.80;99.90;;;;;;5074338;28;20514;-67
2023/08/18 02:46:18;;;;;;;11.15;4.95;;;16.90;99.90;;;;;;5074104;28;20089;-67
2023/08/18 02:48:45;;;;;;;9.82;5.13;;;16.90;99.90;;;;;;5073645;28;20402;-67
2023/08/18 02:51:11;;;;;;;11.88;4.70;;;16.90;99.90;;;;;;5074224;28;20044;-67
2023/08/18 02:53:37;;;;;;;8.40;4.88;;;16.90;99.90;;;;;;5072894;28;20128;-67
2023/08/18 02:56:03;;;;;;;9.50;4.53;;;16.90;99.90;;;;;;5072624;28;20068;-66
2023/08/18 02:58:30;;;;;;;14.32;5.85;;;16.90;99.90;;;;;;5074832;28;20480;-67
2023/08/18 03:01:00;;;;;;;9.75;5.43;;;16.90;99.90;;;;;;5073952;28;20040;-67
2023/08/18 03:03:26;;;;;;;11.55;5.78;;;16.90;99.90;;;;;;5073906;28;20076;-67
2023/08/18 03:05:52;;;;;;;11.13;5.45;;;16.80;99.90;;;;;;5073055;28;20091;-67
2023/08/18 03:08:18;;;;;;;11.77;5.47;;;16.90;99.90;;;;;;5074319;28;20032;-67
2023/08/18 03:10:44;;;;;;;12.30;6.10;;;16.90;99.90;;;;;;5074154;28;20445;-67
2023/08/18 03:13:09;;;;;;;9.23;5.00;;;16.90;99.90;;;;;;5073950;28;20052;-67
2023/08/18 03:15:41;;;;;;;12.50;5.63;;;16.80;99.90;;;;;;5073732;28;20048;-67
2023/08/18 03:18:07;;;;;;;11.20;5.70;;;16.90;99.90;;;;;;5073890;28;20068;-67
2023/08/18 03:20:33;;;;;;;10.35;5.55;;;16.90;99.90;;;;;;5073984;28;20068;-66
2023/08/18 03:22:58;;;;;;;10.80;5.45;;;16.90;99.90;;;;;;5072579;28;20045;-67
2023/08/18 03:25:24;;;;;;;8.30;5.65;;;16.90;99.90;;;;;;5073638;28;20036;-67
2023/08/18 03:27:50;;;;;;;10.45;5.93;;;16.90;99.90;;;;;;5073847;28;20028;-67
2023/08/18 03:30:16;;;;;;;14.93;6.40;;;16.90;99.90;;;;;;5073617;28;20491;-67
2023/08/18 03:32:41;;;;;;;12.50;6.38;;;16.90;99.90;;;;;;5073539;28;20041;-67
2023/08/18 03:35:07;;;;;;;14.95;6.38;;;16.90;99.90;;;;;;5073560;28;20043;-67
2023/08/18 03:37:33;;;;;;;12.30;5.57;;;16.90;99.90;;;;;;5073454;28;20045;-67
2023/08/18 03:39:58;;;;;;;11.45;5.90;;;16.90;99.90;;;;;;5073529;28;20076;-67
2023/08/18 03:42:24;;;;;;;11.82;5.65;;;16.80;99.90;;;;;;5073467;28;20033;-67
2023/08/18 03:44:50;;;;;;;9.82;5.53;;;16.90;99.90;;;;;;5072994;28;20044;-67
2023/08/18 03:47:15;;;;;;;12.55;5.85;;;16.80;99.90;;;;;;5073129;28;20476;-67
2023/08/18 03:49:41;;;;;;;12.18;6.25;;;16.80;99.90;;;;;;5073571;28;20032;-67
2023/08/18 03:52:06;;;;;;;10.93;5.93;;;16.80;99.90;;;;;;5072969;28;20037;-66
2023/08/18 03:54:32;;;;;;;8.60;5.55;;;16.80;99.90;;;;;;5071989;28;20058;-67
2023/08/18 03:56:58;;;;;;;10.80;5.57;;;16.80;99.90;;;;;;5073138;28;20086;-67
2023/08/18 03:59:23;;;;;;;11.43;5.57;;;16.80;99.90;;;;;;5073178;28;20446;-66
2023/08/18 04:01:49;;;;;;;7.40;5.40;;;16.80;99.90;;;;;;5068951;28;20040;-67
2023/08/18 04:04:15;;;;;;;12.68;5.63;;;16.80;99.90;;;;;;5071235;28;20043;-67
2023/08/18 04:06:40;;;;;;;11.13;5.57;;;16.80;99.90;;;;;;5071370;28;20458;-67
2023/08/18 04:09:13;;;;;;;10.15;6.20;;;16.80;99.90;;;;;;5072653;28;20029;-67
2023/08/18 04:11:39;;;;;;;8.65;5.47;;;16.80;99.90;;;;;;5072893;28;20112;-67
2023/08/18 04:14:05;;;;;;;12.10;5.97;;;16.80;99.90;;;;;;5072308;28;20147;-67
2023/08/18 04:16:33;;;;;;;8.93;5.65;;;16.80;99.90;;;;;;5072930;28;20036;-67
2023/08/18 04:19:00;;;;;;;9.93;5.68;;;16.80;99.90;;;;;;5071749;28;20444;-67
2023/08/18 04:21:26;;;;;;;10.57;6.10;;;16.80;99.90;;;;;;5072099;28;20033;-66
2023/08/18 04:23:52;;;;;;;9.65;5.60;;;16.80;99.90;;;;;;5072374;28;20037;-67
2023/08/18 04:26:19;;;;;;;9.52;5.53;;;16.70;99.90;;;;;;5072567;28;20499;-66
2023/08/18 04:28:46;;;;;;;10.77;6.30;;;16.70;99.90;;;;;;5071624;28;20097;-66
2023/08/18 04:31:12;;;;;;;13.23;6.30;;;16.70;99.90;;;;;;5072641;28;20040;-67
2023/08/18 04:33:38;;;;;;;10.25;6.07;;;16.70;99.90;;;;;;5072095;28;20052;-66
2023/08/18 04:36:03;;;;;;;9.52;6.13;;;16.70;99.90;;;;;;5072198;28;20036;-67
2023/08/18 04:38:31;;;;;;;11.13;6.40;;;16.70;99.90;;;;;;5072410;28;20036;-67
2023/08/18 04:40:57;;;;;;;10.70;5.70;;;16.70;99.90;;;;;;5072273;28;20499;-66
2023/08/18 04:43:23;;;;;;;11.88;6.13;;;16.70;99.90;;;;;;5071837;28;20521;-67
2023/08/18 04:45:49;;;;;;;8.55;5.85;;;16.70;99.90;;;;;;5072246;28;20036;-67
2023/08/18 04:48:14;;;;;;;12.60;6.10;;;16.70;99.90;;;;;;5072446;28;20037;-67
2023/08/18 04:50:40;;;;;;;9.50;6.07;;;16.70;99.90;;;;;;5072292;28;20043;-67
2023/08/18 04:53:06;;;;;;;11.15;6.85;;;16.70;99.90;;;;;;5072158;28;20111;-66
2023/08/18 04:55:33;;;;;;;14.57;5.78;;;16.70;99.90;;;;;;5071521;28;20440;-67
2023/08/18 04:57:59;;;;;;;10.32;6.32;;;16.70;99.90;;;;;;5071685;28;20102;-66
2023/08/18 05:00:24;;;;;;;10.40;6.10;;;16.70;99.90;;;;;;5072271;28;20032;-66
2023/08/18 05:02:51;;;;;;;9.80;6.70;;;16.70;99.90;;;;;;5071933;28;20142;-66
2023/08/18 05:05:18;;;;;;;13.60;6.15;;;16.70;99.90;;;;;;5071773;28;20044;-67
2023/08/18 05:07:43;;;;;;;9.90;5.93;;;16.70;99.90;;;;;;5072098;28;20040;-66
2023/08/18 05:10:09;;;;;;;14.43;5.95;;;16.70;99.90;;;;;;5071980;28;20036;-67
2023/08/18 05:12:34;;;;;;;11.40;5.70;;;16.70;99.90;;;;;;5071615;28;20060;-67
2023/08/18 05:15:00;;;;;;;9.25;5.65;;;16.70;99.90;;;;;;5071880;28;20643;-67
2023/08/18 05:17:26;;;;;;;11.88;6.22;;;16.70;99.90;;;;;;5072231;28;20382;-67
2023/08/18 05:19:51;;;;;;;11.23;5.70;;;16.70;99.90;;;;;;5071431;28;20520;-67
2023/08/18 05:22:17;;;;;;;9.88;5.55;;;16.70;99.90;;;;;;5071538;28;20087;-66
2023/08/18 05:24:43;;;;;;;10.23;5.43;;;16.70;99.90;;;;;;5071383;28;20041;-67
2023/08/18 05:27:08;;;;;;;7.03;5.25;;;16.70;99.90;;;;;;5070834;28;20029;-67
2023/08/18 05:29:34;;;;;;;10.98;6.22;;;16.70;99.90;;;;;;5071974;28;20028;-67
2023/08/18 05:31:59;;;;;;;9.52;6.10;;;16.70;99.90;;;;;;5070726;28;20491;-66
2023/08/18 05:34:25;;;;;;;10.82;6.47;;;16.70;99.90;;;;;;5071551;28;20044;-67
2023/08/18 05:36:52;;;;;;;12.80;6.25;;;16.70;99.90;;;;;;5070903;28;20067;-67
2023/08/18 05:39:18;;;;;;;13.82;6.43;;;16.70;99.90;;;;;;5071738;28;20064;-67
2023/08/18 05:41:44;;;;;;;10.23;6.15;;;16.80;99.90;;;;;;5073277;28;20067;-67
2023/08/18 05:44:09;;;;;;;12.98;6.15;;;16.80;99.90;;;;;;5075546;28;20036;-67
2023/08/18 05:46:35;;;;;;;13.52;5.65;;;16.80;99.90;;;;;;5075689;28;20037;-67
2023/08/18 05:49:01;;;;;;;12.20;6.53;;;16.80;99.90;;;;;;5075775;28;20405;-67
2023/08/18 05:51:26;;;;;;;10.05;6.40;;;16.80;99.90;;;;;;5075671;28;20486;-67
2023/08/18 05:53:52;;;;;;;11.20;6.22;;;16.80;99.90;;;;;;5075255;28;20037;-67
2023/08/18 05:56:17;;;;;;;10.02;5.80;;;16.80;99.90;;;;;;5074373;28;20043;-67
2023/08/18 05:58:43;;;;;;;12.70;6.03;;;16.80;99.90;;;;;;5074252;28;20076;-67
2023/08/18 06:01:09;;;;;;;14.02;6.82;;;16.80;99.90;;;;;;5075313;28;20107;-66
2023/08/18 06:03:34;;;;;;;13.98;6.43;;;16.90;99.90;;;;;;5074529;28;20047;-66
2023/08/18 06:06:00;;;;;;;13.98;5.93;;;16.80;99.90;;;;;;5075792;28;20037;-66
2023/08/18 06:08:26;;;;;;;10.50;6.55;;;16.80;99.90;;;;;;5073626;28;20549;-66
2023/08/18 06:10:52;;;;;;;12.43;6.45;;;16.90;99.90;;;;;;5075050;28;20040;-67
2023/08/18 06:13:18;;;;;;;11.10;6.35;;;16.90;99.90;;;;;;5074772;28;20058;-67
2023/08/18 06:15:44;;;;;;;13.10;5.80;;;16.90;99.90;;;;;;5075055;28;20041;-66
2023/08/18 06:18:09;;;;;;;13.32;6.45;;;16.90;99.90;;;;;;5073785;28;20063;-67
2023/08/18 06:20:35;;;;;;;9.73;5.75;;;17.00;99.90;;;;;;5075093;28;20059;-67
2023/08/18 06:23:01;;;;;;;12.13;6.80;;;17.00;99.90;;;;;;5074815;28;20107;-67
2023/08/18 06:25:27;;;;;;;11.38;6.40;;;17.00;99.90;;;;;;5073763;28;20113;-67
2023/08/18 06:27:52;;;;;;;11.55;6.80;;;17.10;99.90;;;;;;5073303;28;20036;-67
2023/08/18 06:30:18;;;;;;;12.35;6.70;;;17.10;99.90;;;;;;5074884;28;20037;-67
2023/08/18 06:32:45;;;;;;;13.88;7.05;;;17.10;99.90;;;;;;5073474;28;20079;-67
2023/08/18 06:35:11;;;;;;;11.25;6.15;;;17.10;99.90;;;;;;5073338;28;20504;-67
2023/08/18 06:37:36;;;;;;;12.20;6.70;;;17.10;99.90;;;;;;5071923;22;20139;-67
2023/08/18 06:40:02;;;;;;;13.90;6.55;;;17.10;99.90;;;;;;5054181;28;20047;-67
2023/08/18 06:42:28;;;;;;;12.63;7.05;;;17.10;99.90;;;;;;5053886;28;20111;-67
2023/08/18 06:44:54;;;;;;;11.85;7.40;;;17.10;99.90;;;;;;5054206;28;20186;-67
2023/08/18 06:47:19;;;;;;;12.27;7.00;;;17.20;99.90;;;;;;5054501;28;20037;-67
2023/08/18 06:49:45;;;;;;;14.75;6.88;;;17.20;99.90;;;;;;5054489;28;20037;-67
2023/08/18 06:52:11;;;;;;;16.15;7.95;;;17.30;99.90;;;;;;5054122;28;20095;-67
2023/08/18 06:54:36;;;;;;;16.75;7.95;;;17.30;99.90;;;;;;5054023;28;20045;-67
2023/08/18 06:57:02;;;;;;;16.73;7.57;;;17.30;99.90;;;;;;5054566;28;20112;-67
2023/08/18 06:59:28;;;;;;;18.50;8.50;;;17.40;99.90;;;;;;5054307;28;20037;-67
2023/08/18 07:01:54;;;;;;;16.88;8.60;;;17.40;99.90;;;;;;5054369;28;20043;-67
2023/08/18 07:04:19;;;;;;;14.00;7.75;;;17.40;99.90;;;;;;5052538;28;20037;-67
2023/08/18 07:06:45;;;;;;;15.05;9.13;;;17.40;99.90;;;;;;5052709;28;20037;-67
2023/08/18 07:09:12;;;;;;;18.00;9.52;;;17.40;99.90;;;;;;5052466;28;20051;-66
2023/08/18 07:11:37;;;;;;;16.73;8.52;;;17.40;99.90;;;;;;5054286;28;20036;-67
2023/08/18 07:14:03;;;;;;;16.23;9.23;;;17.40;99.90;;;;;;5053762;28;20047;-66
2023/08/18 07:16:30;;;;;;;17.42;9.50;;;17.50;99.90;;;;;;5053140;28;20457;-66
2023/08/18 07:18:55;;;;;;;20.83;9.80;;;17.50;99.90;;;;;;5036010;28;20036;-66
2023/08/18 07:21:21;;;;;;;19.25;9.63;;;17.50;99.90;;;;;;5053961;28;20085;-66
2023/08/18 07:23:46;;;;;;;18.60;9.05;;;17.50;99.90;;;;;;5053003;28;20041;-65
2023/08/18 07:26:12;;;;;;;16.88;9.48;;;17.50;99.90;;;;;;5054015;28;20238;-66
2023/08/18 07:28:38;;;;;;;19.95;9.07;;;17.60;99.90;;;;;;5053819;28;20380;-66
2023/08/18 07:31:04;;;;;;;20.40;8.65;;;17.60;99.90;;;;;;5053843;28;20432;-65
2023/08/18 07:33:30;;;;;;;19.10;10.13;;;17.60;99.90;;;;;;5035353;28;20044;-66
2023/08/18 07:35:57;;;;;;;16.58;9.48;;;17.60;99.90;;;;;;5035551;28;20037;-66
2023/08/18 07:38:23;;;;;;;19.00;10.18;;;17.60;99.90;;;;;;5035841;28;20504;-66
2023/08/18 07:40:48;;;;;;;17.80;9.85;;;17.50;99.90;;;;;;5053069;28;20175;-66
2023/08/18 07:43:14;;;;;;;19.83;10.15;;;17.50;99.90;;;;;;5053291;28;20041;-65
2023/08/18 07:45:40;;;;;;;19.05;8.98;;;17.50;99.90;;;;;;5035179;28;20041;-66
2023/08/18 07:48:05;;;;;;;18.55;9.50;;;17.50;99.90;;;;;;5035083;28;20037;-65
2023/08/18 07:50:32;;;;;;;18.08;9.43;;;17.50;99.90;;;;;;5053305;28;20036;-66
2023/08/18 07:52:58;;;;;;;17.58;9.10;;;17.60;99.90;;;;;;5053167;28;20437;-65
2023/08/18 07:55:24;;;;;;;16.90;10.13;;;17.60;99.90;;;;;;5052752;28;20039;-66
2023/08/18 07:57:50;;;;;;;17.90;9.65;;;17.60;99.90;;;;;;5034847;28;20098;-66
2023/08/18 08:00:19;;;;;;;18.58;9.85;;;17.70;99.90;;;;;;5053249;28;20415;-66
2023/08/18 08:02:46;;;;;;;20.27;10.25;;;17.70;99.90;;;;;;5034981;28;20041;-66
2023/08/18 08:05:12;;;;;;;21.15;10.02;;;17.80;99.90;;;;;;5051786;28;20487;-66
2023/08/18 08:07:40;;;;;;;23.50;10.68;;;17.80;99.90;;;;;;5052797;28;20175;-66
2023/08/18 08:10:06;;;;;;;25.98;10.98;;;17.80;99.90;;;;;;5053021;28;20041;-66
2023/08/18 08:12:38;;;;;;;23.98;10.30;;;17.90;99.90;;;;;;5052541;28;20037;-66
2023/08/18 08:15:04;;;;;;;22.27;10.20;;;17.90;99.90;;;;;;5052243;28;20040;-65
2023/08/18 08:17:31;;;;;;;22.67;10.98;;;18.00;99.90;;;;;;5034909;28;20080;-66
2023/08/18 08:19:56;;;;;;;28.40;11.40;;;18.10;99.90;;;;;;5052659;28;20136;-66
2023/08/18 08:22:23;;;;;;;29.98;11.52;;;18.20;99.90;;;;;;5034025;28;20530;-66
2023/08/18 08:24:50;;;;;;;24.02;10.23;;;18.30;99.90;;;;;;5034110;28;20048;-65
2023/08/18 08:27:17;;;;;;;28.40;11.38;;;18.30;99.90;;;;;;5052683;28;20041;-66
2023/08/18 08:29:43;;;;;;;26.50;11.88;;;18.30;99.90;;;;;;5052629;28;20040;-66
2023/08/18 08:32:09;;;;;;;27.58;12.10;;;18.40;99.90;;;;;;5052196;28;20406;-66
2023/08/18 08:34:39;;;;;;;26.42;11.48;;;18.50;99.90;;;;;;5034136;28;20128;-66
2023/08/18 08:37:06;;;;;;;25.90;11.48;;;18.60;99.90;;;;;;5052098;28;20044;-66
2023/08/18 08:39:31;;;;;;;25.45;11.02;;;18.60;99.90;;;;;;5052462;28;20037;-65
2023/08/18 08:41:57;;;;;;;25.27;11.15;;;18.70;99.90;;;;;;5052472;28;20041;-65
2023/08/18 08:44:23;;;;;;;23.35;11.13;;;18.80;99.90;;;;;;5052020;28;20483;-66
2023/08/18 08:46:49;;;;;;;24.55;11.27;;;18.80;99.90;;;;;;5052301;28;20403;-66
2023/08/18 08:49:16;;;;;;;23.98;10.77;;;18.90;99.90;;;;;;5052096;28;20033;-65
2023/08/18 08:51:44;;;;;;;25.70;11.25;;;18.90;99.90;;;;;;5052334;28;20033;-66
2023/08/18 08:54:13;;;;;;;23.55;11.20;;;19.00;99.90;;;;;;5018031;28;20037;-66
2023/08/18 08:56:42;;;;;;;29.48;11.90;;;19.10;99.90;;;;;;5051691;28;20044;-66
2023/08/18 08:59:08;;;;;;;23.90;10.70;;;19.10;99.90;;;;;;5033997;28;20044;-66
2023/08/18 09:01:35;;;;;;;24.25;11.02;;;19.20;99.90;;;;;;5034037;28;20049;-66
2023/08/18 09:04:03;;;;;;;24.13;11.77;;;19.20;99.90;;;;;;5033847;28;20033;-66
2023/08/18 09:06:29;;;;;;;20.63;10.73;;;19.30;99.90;;;;;;5034327;28;20044;-66
2023/08/18 09:08:56;;;;;;;20.58;10.70;;;19.30;99.90;;;;;;5052102;28;20033;-66
2023/08/18 09:11:41;;;;;;;23.35;10.57;;;19.30;99.90;;;;;;5052028;28;20119;-66
2023/08/18 09:14:08;;;;;;;18.92;10.57;;;19.40;99.90;;;;;;5051342;28;20048;-66
2023/08/18 09:16:34;;;;;;;20.15;10.23;;;19.50;99.90;;;;;;5051861;28;20048;-67
2023/08/18 09:19:01;;;;;;;17.27;9.93;;;19.50;99.90;;;;;;5052059;28;20037;-66
2023/08/18 09:21:26;;;;;;;19.58;9.80;;;19.60;99.90;;;;;;5034213;28;20384;-67
2023/08/18 09:23:56;;;;;;;19.33;9.73;;;19.60;99.90;;;;;;5051500;28;20048;-66
2023/08/18 09:26:22;;;;;;;18.38;9.02;;;19.60;99.90;;;;;;5051492;28;20037;-66
2023/08/18 09:28:47;;;;;;;16.48;9.27;;;19.60;99.90;;;;;;5050676;28;20043;-66
2023/08/18 09:31:13;;;;;;;17.00;9.32;;;19.60;99.90;;;;;;5051555;28;20044;-66
2023/08/18 09:33:39;;;;;;;15.15;8.88;;;19.70;99.90;;;;;;5033667;28;20053;-66
2023/08/18 09:36:04;;;;;;;12.98;8.52;;;19.70;99.90;;;;;;5033617;28;20056;-66
2023/08/18 09:38:40;;;;;;;16.33;9.70;;;19.70;99.90;;;;;;5051730;28;20047;-66
2023/08/18 09:41:10;;;;;;;14.68;9.82;;;19.80;99.90;;;;;;5033723;28;20091;-66
2023/08/18 09:43:37;;;;;;;15.82;9.88;;;19.80;99.90;;;;;;5051466;28;20041;-66
2023/08/18 09:46:04;;;;;;;18.80;9.38;;;19.80;99.90;;;;;;5051270;28;20518;-66
2023/08/18 09:48:34;;;;;;;16.45;9.73;;;19.80;99.90;;;;;;5034018;28;20037;-66
2023/08/18 09:51:01;;;;;;;16.98;9.68;;;19.90;99.90;;;;;;5051689;28;20124;-66
2023/08/18 09:53:30;;;;;;;16.13;10.40;;;19.90;99.90;;;;;;5033807;28;20049;-67
2023/08/18 09:56:04;;;;;;;16.67;10.40;;;19.90;99.90;;;;;;5033162;28;20044;-66
2023/08/18 09:58:55;;;;;;;17.15;9.38;;;20.00;99.90;;;;;;5051715;28;20037;-66
2023/08/18 10:01:21;;;;;;;;;;;20.00;99.90;;;;;;5051971;28;20041;-66
2023/08/18 10:03:47;;;;;;;15.20;9.45;;;20.10;99.90;;;;;;5051180;28;19982;-66
2023/08/18 10:06:17;;;;;;;15.82;10.43;;;20.10;99.90;;;;;;5051116;28;20033;-66
2023/08/18 10:08:44;;;;;;;17.20;9.32;;;20.20;99.90;;;;;;5051426;28;20398;-67
2023/08/18 10:11:11;;;;;;;15.60;9.68;;;20.30;99.90;;;;;;5051137;28;20082;-67
2023/08/18 10:13:37;;;;;;;15.90;9.65;;;20.30;99.90;;;;;;5033396;28;20537;-67
2023/08/18 10:16:05;;;;;;;14.75;9.23;;;20.40;99.90;;;;;;5033028;28;20095;-67
2023/08/18 10:18:31;;;;;;;14.68;10.13;;;20.40;99.90;;;;;;5033145;28;20178;-66
2023/08/18 10:20:58;;;;;;;13.80;9.63;;;20.50;99.90;;;;;;5050830;28;20119;-66
2023/08/18 10:23:25;;;;;;;14.32;9.02;;;20.50;99.90;;;;;;5051190;28;20055;-66
2023/08/18 10:25:52;;;;;;;16.40;10.43;;;20.60;99.90;;;;;;5051088;28;20033;-66
2023/08/18 10:28:19;;;;;;;12.65;9.23;;;20.60;99.90;;;;;;5053630;28;20490;-66
2023/08/18 10:30:56;;;;;;;11.30;9.65;;;20.70;99.90;;;;;;5036915;28;20041;-67
2023/08/18 10:33:31;;;;;;;15.02;9.35;;;20.70;99.90;;;;;;5054600;28;20040;-67
2023/08/18 10:35:58;;;;;;;13.88;10.15;;;20.70;99.90;;;;;;5054568;28;20481;-66
2023/08/18 10:38:28;;;;;;;11.50;8.98;;;20.80;99.90;;;;;;5054919;28;20044;-67
2023/08/18 10:40:53;;;;;;;12.57;9.90;;;20.80;99.90;;;;;;5054803;28;20068;-66
2023/08/18 10:43:19;;;;;;;12.48;10.07;;;20.90;99.90;;;;;;5036703;28;20350;-67
2023/08/18 10:45:50;;;;;;;12.10;10.32;;;21.00;99.90;;;;;;5054114;28;20041;-66
2023/08/18 10:48:16;;;;;;;14.25;10.20;;;21.10;99.90;;;;;;5037020;28;20076;-67
2023/08/18 10:50:44;;;;;;;16.15;10.25;;;21.20;99.90;;;;;;5054632;28;20064;-67
2023/08/18 10:53:12;;;;;;;14.35;10.10;;;21.30;99.90;;;;;;5036673;28;20075;-67
2023/08/18 10:55:39;;;;;;;14.82;10.75;;;21.30;99.90;;;;;;5054066;28;20079;-67
2023/08/18 10:58:05;;;;;;;14.18;10.13;;;21.40;99.90;;;;;;5054449;28;20120;-66
2023/08/18 11:00:32;;;;;;;16.65;11.30;;;21.40;99.90;;;;;;5036243;28;20128;-67
2023/08/18 11:02:58;;;;;;;14.60;10.25;;;21.40;99.90;;;;;;5054464;28;20041;-66
2023/08/18 11:05:23;;;;;;;13.50;10.18;;;21.50;99.90;;;;;;5053772;28;20045;-67
2023/08/18 11:07:52;;;;;;;16.52;11.55;;;21.70;99.90;;;;;;5019693;28;20045;-66
2023/08/18 11:10:20;;;;;;;13.70;9.52;;;21.90;99.90;;;;;;5053280;28;20368;-67
2023/08/18 11:12:47;;;;;;;16.13;11.43;;;22.10;99.90;;;;;;5036094;28;20090;-67
2023/08/18 11:15:14;;;;;;;14.77;11.05;;;22.30;99.90;;;;;;5035491;28;20463;-67
2023/08/18 11:17:41;;;;;;;12.95;10.65;;;22.60;99.90;;;;;;5054108;28;20120;-67
2023/08/18 11:20:08;;;;;;;16.30;12.13;;;22.90;99.90;;;;;;5054047;28;20045;-67
2023/08/18 11:22:37;;;;;;;13.90;11.23;;;23.20;99.90;;;;;;5054016;28;20072;-67
2023/08/18 11:25:04;;;;;;;16.55;11.45;;;23.40;99.90;;;;;;5053321;28;20175;-67
2023/08/18 11:27:34;;;;;;;16.63;11.80;;;23.30;99.90;;;;;;5035803;28;20037;-67
2023/08/18 11:30:00;;;;;;;16.15;12.20;;;23.20;99.90;;;;;;5053764;28;20037;-67
2023/08/18 11:32:27;;;;;;;20.23;11.98;;;23.10;99.90;;;;;;5036119;28;20055;-67
2023/08/18 11:34:53;;;;;;;15.73;11.63;;;22.90;99.90;;;;;;5035774;28;20128;-67
2023/08/18 11:37:23;;;;;;;16.88;13.27;;;22.80;99.90;;;;;;5053567;28;20128;-67
2023/08/18 11:39:49;;;;;;;16.10;11.15;;;22.70;99.90;;;;;;5052379;28;20076;-67
2023/08/18 11:42:15;;;;;;;14.70;12.32;;;22.70;99.90;;;;;;5035447;28;20045;-67
2023/08/18 11:44:41;;;;;;;16.90;12.73;;;22.70;99.90;;;;;;5035389;28;20098;-67
2023/08/18 11:47:08;;;;;;;15.82;12.10;;;22.70;99.90;;;;;;5035410;28;20072;-67
2023/08/18 11:49:35;;;;;;;19.10;13.50;;;22.60;99.90;;;;;;5053495;28;20102;-67
2023/08/18 11:52:04;;;;;;;16.80;13.50;;;22.60;99.90;;;;;;5052665;28;20087;-67
2023/08/18 11:54:35;;;;;;;16.02;12.43;;;22.60;99.90;;;;;;5035119;28;20041;-67
2023/08/18 11:57:02;;;;;;;17.05;12.10;;;22.70;99.90;;;;;;5053263;28;20040;-67
2023/08/18 11:59:28;;;;;;;16.85;13.23;;;22.80;99.90;;;;;;5052947;28;20243;-67
2023/08/18 12:01:59;;;;;;;15.50;11.95;;;22.90;99.90;;;;;;5035134;28;20041;-67
2023/08/18 12:04:26;;;;;;;17.23;12.90;;;23.00;99.90;;;;;;5034930;28;20036;-67
2023/08/18 12:06:52;;;;;;;17.63;12.52;;;23.10;99.90;;;;;;5052875;28;20037;-67
2023/08/18 12:09:18;;;;;;;16.58;11.65;;;23.20;99.90;;;;;;5052865;28;20491;-67
2023/08/18 12:11:43;;;;;;;15.85;12.18;;;23.50;99.90;;;;;;5053151;28;20040;-67
2023/08/18 12:14:09;;;;;;;15.02;12.25;;;23.70;99.90;;;;;;5052736;28;20048;-67
2023/08/18 12:16:34;;;;;;;16.10;12.25;;;23.80;99.90;;;;;;5034806;28;20048;-67
2023/08/18 12:19:04;;;;;;;17.00;13.00;;;23.90;99.90;;;;;;5052819;28;20045;-67
2023/08/18 12:21:34;;;;;;;14.15;11.35;;;23.90;99.90;;;;;;5034847;28;20098;-67
2023/08/18 12:24:06;;;;;;;16.35;13.52;;;23.80;99.90;;;;;;5052410;28;20398;-67
2023/08/18 12:26:35;;;;;;;17.17;12.38;;;23.80;99.90;;;;;;5051753;28;20510;-67
2023/08/18 12:29:04;;;;;;;16.70;11.43;;;23.70;99.90;;;;;;5052829;28;20150;-67
2023/08/18 12:31:33;;;;;;;16.70;13.00;;;23.70;99.90;;;;;;5034699;28;20037;-67
2023/08/18 12:34:01;;;;;;;16.13;12.57;;;23.60;99.90;;;;;;5052341;28;20043;-67